sensor_id;sensor_type;location;lat;lon;timestamp;P1;durP1;ratioP1;P2;durP2;ratioP2
37001;SDS011;22913;51.910;8.374;2023-02-01T00:02:35;16.17;;;3.90;;
37001;SDS011;22913;51.910;8.374;2023-02-01T00:05:23;14.70;;;3.90;;
37001;SDS011;22913;51.910;8.374;2023-02-01T00:08:09;14.03;;;3.73;;
37001;SDS011;22913;51.910;8.374;2023-02-01T00:10:58;10.43;;;3.67;;
37001;SDS011;22913;51.910;8.374;2023-02-01T00:13:45;13.43;;;4.07;;
37001;SDS011;22913;51.910;8.374;2023-02-01T00:16:32;14.50;;;3.43;;
37001;SDS011;22913;51.910;8.374;2023-02-01T00:19:18;15.90;;;3.80;;
37001;SDS011;22913;51.910;8.374;2023-02-01T00:22:04;13.63;;;3.90;;
37001;SDS011;22913;51.910;8.374;2023-02-01T00:24:49;11.93;;;3.53;;
37001;SDS011;22913;51.910;8.374;2023-02-01T00:27:35;18.50;;;4.33;;
37001;SDS011;22913;51.910;8.374;2023-02-01T00:30:20;11.27;;;3.17;;
37001;SDS011;22913;51.910;8.374;2023-02-01T00:33:07;11.60;;;3.30;;
37001;SDS011;22913;51.910;8.374;2023-02-01T00:35:55;13.07;;;3.60;;
37001;SDS011;22913;51.910;8.374;2023-02-01T00:38:42;15.23;;;3.70;;
37001;SDS011;22913;51.910;8.374;2023-02-01T00:41:28;11.23;;;3.47;;
37001;SDS011;22913;51.910;8.374;2023-02-01T00:44:14;10.57;;;3.30;;
37001;SDS011;22913;51.910;8.374;2023-02-01T00:46:59;16.13;;;4.00;;
37001;SDS011;22913;51.910;8.374;2023-02-01T00:49:46;14.07;;;4.27;;
37001;SDS011;22913;51.910;8.374;2023-02-01T00:52:32;13.03;;;3.53;;
37001;SDS011;22913;51.910;8.374;2023-02-01T00:55:17;13.83;;;4.17;;
37001;SDS011;22913;51.910;8.374;2023-02-01T00:58:03;20.80;;;4.67;;
37001;SDS011;22913;51.910;8.374;2023-02-01T01:00:49;17.70;;;4.50;;
37001;SDS011;22913;51.910;8.374;2023-02-01T01:03:36;15.53;;;4.57;;
37001;SDS011;22913;51.910;8.374;2023-02-01T01:06:25;11.40;;;3.53;;
37001;SDS011;22913;51.910;8.374;2023-02-01T01:09:12;17.17;;;3.50;;
37001;SDS011;22913;51.910;8.374;2023-02-01T01:11:57;16.00;;;4.50;;
37001;SDS011;22913;51.910;8.374;2023-02-01T01:14:46;15.27;;;4.27;;
37001;SDS011;22913;51.910;8.374;2023-02-01T01:17:31;12.23;;;4.20;;
37001;SDS011;22913;51.910;8.374;2023-02-01T01:20:17;11.97;;;3.70;;
37001;SDS011;22913;51.910;8.374;2023-02-01T01:23:07;17.17;;;4.17;;
37001;SDS011;22913;51.910;8.374;2023-02-01T01:25:53;16.63;;;4.77;;
37001;SDS011;22913;51.910;8.374;2023-02-01T01:28:39;14.90;;;4.80;;
37001;SDS011;22913;51.910;8.374;2023-02-01T01:31:24;11.03;;;3.73;;
37001;SDS011;22913;51.910;8.374;2023-02-01T01:34:11;16.17;;;4.37;;
37001;SDS011;22913;51.910;8.374;2023-02-01T01:36:56;12.27;;;3.50;;
37001;SDS011;22913;51.910;8.374;2023-02-01T01:39:43;19.63;;;4.77;;
37001;SDS011;22913;51.910;8.374;2023-02-01T01:42:29;15.87;;;4.00;;
37001;SDS011;22913;51.910;8.374;2023-02-01T01:45:20;17.17;;;4.33;;
37001;SDS011;22913;51.910;8.374;2023-02-01T01:48:08;11.90;;;4.73;;
37001;SDS011;22913;51.910;8.374;2023-02-01T01:50:59;16.37;;;4.00;;
37001;SDS011;22913;51.910;8.374;2023-02-01T01:53:49;18.47;;;5.07;;
37001;SDS011;22913;51.910;8.374;2023-02-01T01:56:42;9.57;;;3.90;;
37001;SDS011;22913;51.910;8.374;2023-02-01T01:59:28;17.23;;;4.33;;
37001;SDS011;22913;51.910;8.374;2023-02-01T02:02:16;11.67;;;4.60;;
37001;SDS011;22913;51.910;8.374;2023-02-01T02:05:02;12.10;;;4.20;;
37001;SDS011;22913;51.910;8.374;2023-02-01T02:07:48;15.53;;;5.07;;
37001;SDS011;22913;51.910;8.374;2023-02-01T02:10:36;16.77;;;5.50;;
37001;SDS011;22913;51.910;8.374;2023-02-01T02:13:41;13.53;;;4.40;;
37001;SDS011;22913;51.910;8.374;2023-02-01T02:16:37;11.70;;;4.17;;
37001;SDS011;22913;51.910;8.374;2023-02-01T02:19:32;12.27;;;4.20;;
37001;SDS011;22913;51.910;8.374;2023-02-01T02:26:12;13.60;;;4.37;;
37001;SDS011;22913;51.910;8.374;2023-02-01T02:32:47;16.87;;;4.53;;
37001;SDS011;22913;51.910;8.374;2023-02-01T02:35:50;12.97;;;4.17;;
37001;SDS011;22913;51.910;8.374;2023-02-01T02:38:44;17.60;;;4.53;;
37001;SDS011;22913;51.910;8.374;2023-02-01T02:41:40;16.33;;;4.50;;
37001;SDS011;22913;51.910;8.374;2023-02-01T02:44:53;15.80;;;3.87;;
37001;SDS011;22913;51.910;8.374;2023-02-01T02:48:02;11.20;;;3.57;;
37001;SDS011;22913;51.910;8.374;2023-02-01T02:50:58;14.73;;;3.93;;
37001;SDS011;22913;51.910;8.374;2023-02-01T02:54:05;15.07;;;4.20;;
37001;SDS011;22913;51.910;8.374;2023-02-01T02:57:11;11.27;;;3.90;;
37001;SDS011;22913;51.910;8.374;2023-02-01T03:00:18;13.27;;;3.30;;
37001;SDS011;22913;51.910;8.374;2023-02-01T03:03:24;10.80;;;3.80;;
37001;SDS011;22913;51.910;8.374;2023-02-01T03:06:28;15.63;;;3.70;;
37001;SDS011;22913;51.910;8.374;2023-02-01T03:09:18;14.00;;;4.03;;
37001;SDS011;22913;51.910;8.374;2023-02-01T03:12:09;12.57;;;3.80;;
37001;SDS011;22913;51.910;8.374;2023-02-01T03:15:14;14.43;;;3.80;;
37001;SDS011;22913;51.910;8.374;2023-02-01T03:18:02;15.73;;;3.93;;
37001;SDS011;22913;51.910;8.374;2023-02-01T03:20:55;11.70;;;3.50;;
37001;SDS011;22913;51.910;8.374;2023-02-01T03:23:43;10.97;;;3.10;;
37001;SDS011;22913;51.910;8.374;2023-02-01T03:26:31;16.83;;;3.53;;
37001;SDS011;22913;51.910;8.374;2023-02-01T03:29:22;10.43;;;3.37;;
37001;SDS011;22913;51.910;8.374;2023-02-01T03:32:12;14.87;;;3.27;;
37001;SDS011;22913;51.910;8.374;2023-02-01T03:34:57;16.40;;;3.63;;
37001;SDS011;22913;51.910;8.374;2023-02-01T03:37:43;12.70;;;3.37;;
37001;SDS011;22913;51.910;8.374;2023-02-01T03:40:32;16.80;;;4.20;;
37001;SDS011;22913;51.910;8.374;2023-02-01T03:43:21;14.97;;;3.43;;
37001;SDS011;22913;51.910;8.374;2023-02-01T03:46:11;12.27;;;3.70;;
37001;SDS011;22913;51.910;8.374;2023-02-01T03:49:00;10.90;;;3.67;;
37001;SDS011;22913;51.910;8.374;2023-02-01T03:51:50;16.70;;;3.83;;
37001;SDS011;22913;51.910;8.374;2023-02-01T03:54:36;12.40;;;4.03;;
37001;SDS011;22913;51.910;8.374;2023-02-01T03:57:26;8.83;;;3.03;;
37001;SDS011;22913;51.910;8.374;2023-02-01T04:00:15;13.80;;;3.70;;
37001;SDS011;22913;51.910;8.374;2023-02-01T04:03:06;14.20;;;4.50;;
37001;SDS011;22913;51.910;8.374;2023-02-01T04:05:52;17.33;;;3.70;;
37001;SDS011;22913;51.910;8.374;2023-02-01T04:08:38;12.10;;;3.43;;
37001;SDS011;22913;51.910;8.374;2023-02-01T04:11:24;12.27;;;3.47;;
37001;SDS011;22913;51.910;8.374;2023-02-01T04:14:12;12.83;;;3.40;;
37001;SDS011;22913;51.910;8.374;2023-02-01T04:16:57;12.63;;;4.10;;
37001;SDS011;22913;51.910;8.374;2023-02-01T04:19:43;12.13;;;3.60;;
37001;SDS011;22913;51.910;8.374;2023-02-01T04:22:29;14.73;;;3.93;;
37001;SDS011;22913;51.910;8.374;2023-02-01T04:25:14;10.83;;;3.27;;
37001;SDS011;22913;51.910;8.374;2023-02-01T04:28:00;12.43;;;3.43;;
37001;SDS011;22913;51.910;8.374;2023-02-01T04:30:47;14.13;;;3.60;;
37001;SDS011;22913;51.910;8.374;2023-02-01T04:33:33;15.83;;;3.43;;
37001;SDS011;22913;51.910;8.374;2023-02-01T04:36:18;12.73;;;3.63;;
37001;SDS011;22913;51.910;8.374;2023-02-01T04:39:06;10.20;;;3.13;;
37001;SDS011;22913;51.910;8.374;2023-02-01T04:41:53;14.83;;;3.50;;
37001;SDS011;22913;51.910;8.374;2023-02-01T04:44:39;18.67;;;4.27;;
37001;SDS011;22913;51.910;8.374;2023-02-01T04:47:27;14.53;;;3.73;;
37001;SDS011;22913;51.910;8.374;2023-02-01T04:50:12;15.33;;;3.80;;
37001;SDS011;22913;51.910;8.374;2023-02-01T04:52:58;13.30;;;3.87;;
37001;SDS011;22913;51.910;8.374;2023-02-01T04:55:43;17.33;;;4.00;;
37001;SDS011;22913;51.910;8.374;2023-02-01T04:58:29;11.90;;;3.93;;
37001;SDS011;22913;51.910;8.374;2023-02-01T05:01:15;21.57;;;3.77;;
37001;SDS011;22913;51.910;8.374;2023-02-01T05:04:02;16.67;;;3.73;;
37001;SDS011;22913;51.910;8.374;2023-02-01T05:06:48;14.47;;;4.10;;
37001;SDS011;22913;51.910;8.374;2023-02-01T05:09:34;13.57;;;3.93;;
37001;SDS011;22913;51.910;8.374;2023-02-01T05:12:19;24.60;;;4.57;;
37001;SDS011;22913;51.910;8.374;2023-02-01T05:15:22;13.27;;;3.67;;
37001;SDS011;22913;51.910;8.374;2023-02-01T05:18:08;15.43;;;3.73;;
37001;SDS011;22913;51.910;8.374;2023-02-01T05:20:56;15.23;;;3.57;;
37001;SDS011;22913;51.910;8.374;2023-02-01T05:23:42;15.13;;;3.77;;
37001;SDS011;22913;51.910;8.374;2023-02-01T05:26:45;19.27;;;3.87;;
37001;SDS011;22913;51.910;8.374;2023-02-01T05:29:30;12.37;;;3.47;;
37001;SDS011;22913;51.910;8.374;2023-02-01T05:32:16;11.27;;;3.90;;
37001;SDS011;22913;51.910;8.374;2023-02-01T05:35:02;14.17;;;3.97;;
37001;SDS011;22913;51.910;8.374;2023-02-01T05:37:49;15.30;;;3.60;;
37001;SDS011;22913;51.910;8.374;2023-02-01T05:40:35;19.67;;;4.13;;
37001;SDS011;22913;51.910;8.374;2023-02-01T05:43:20;15.77;;;3.47;;
37001;SDS011;22913;51.910;8.374;2023-02-01T05:46:06;11.17;;;3.40;;
37001;SDS011;22913;51.910;8.374;2023-02-01T05:48:54;14.77;;;3.50;;
37001;SDS011;22913;51.910;8.374;2023-02-01T05:51:40;17.27;;;3.80;;
37001;SDS011;22913;51.910;8.374;2023-02-01T05:54:27;12.97;;;3.77;;
37001;SDS011;22913;51.910;8.374;2023-02-01T05:57:12;14.13;;;3.83;;
37001;SDS011;22913;51.910;8.374;2023-02-01T05:59:58;9.93;;;3.20;;
37001;SDS011;22913;51.910;8.374;2023-02-01T06:02:44;14.87;;;3.60;;
37001;SDS011;22913;51.910;8.374;2023-02-01T06:05:30;12.03;;;3.33;;
37001;SDS011;22913;51.910;8.374;2023-02-01T06:08:15;18.57;;;3.80;;
37001;SDS011;22913;51.910;8.374;2023-02-01T06:11:03;18.37;;;4.20;;
37001;SDS011;22913;51.910;8.374;2023-02-01T06:13:49;19.83;;;4.20;;
37001;SDS011;22913;51.910;8.374;2023-02-01T06:16:35;15.20;;;3.97;;
37001;SDS011;22913;51.910;8.374;2023-02-01T06:19:20;14.03;;;3.53;;
37001;SDS011;22913;51.910;8.374;2023-02-01T06:22:06;14.90;;;3.83;;
37001;SDS011;22913;51.910;8.374;2023-02-01T06:24:51;13.90;;;3.77;;
37001;SDS011;22913;51.910;8.374;2023-02-01T06:27:38;14.10;;;3.33;;
37001;SDS011;22913;51.910;8.374;2023-02-01T06:30:24;15.23;;;3.50;;
37001;SDS011;22913;51.910;8.374;2023-02-01T06:33:10;16.53;;;3.73;;
37001;SDS011;22913;51.910;8.374;2023-02-01T06:35:58;15.83;;;3.87;;
37001;SDS011;22913;51.910;8.374;2023-02-01T06:38:45;10.67;;;3.50;;
37001;SDS011;22913;51.910;8.374;2023-02-01T06:41:31;12.97;;;3.80;;
37001;SDS011;22913;51.910;8.374;2023-02-01T06:44:19;13.60;;;4.07;;
37001;SDS011;22913;51.910;8.374;2023-02-01T06:47:05;18.83;;;4.10;;
37001;SDS011;22913;51.910;8.374;2023-02-01T06:49:51;13.80;;;3.47;;
37001;SDS011;22913;51.910;8.374;2023-02-01T06:52:36;16.20;;;4.00;;
37001;SDS011;22913;51.910;8.374;2023-02-01T06:55:22;15.50;;;3.57;;
37001;SDS011;22913;51.910;8.374;2023-02-01T06:58:08;11.43;;;3.50;;
37001;SDS011;22913;51.910;8.374;2023-02-01T07:00:55;16.37;;;4.47;;
37001;SDS011;22913;51.910;8.374;2023-02-01T07:03:40;11.20;;;3.40;;
37001;SDS011;22913;51.910;8.374;2023-02-01T07:06:26;16.30;;;4.20;;
37001;SDS011;22913;51.910;8.374;2023-02-01T07:09:12;14.30;;;3.93;;
37001;SDS011;22913;51.910;8.374;2023-02-01T07:11:57;13.73;;;3.93;;
37001;SDS011;22913;51.910;8.374;2023-02-01T07:14:43;20.37;;;3.73;;
37001;SDS011;22913;51.910;8.374;2023-02-01T07:17:30;13.43;;;3.70;;
37001;SDS011;22913;51.910;8.374;2023-02-01T07:20:16;10.93;;;3.77;;
37001;SDS011;22913;51.910;8.374;2023-02-01T07:23:02;13.10;;;4.27;;
37001;SDS011;22913;51.910;8.374;2023-02-01T07:25:47;10.17;;;3.57;;
37001;SDS011;22913;51.910;8.374;2023-02-01T07:28:33;13.07;;;4.33;;
37001;SDS011;22913;51.910;8.374;2023-02-01T07:31:21;13.10;;;3.80;;
37001;SDS011;22913;51.910;8.374;2023-02-01T07:34:10;16.53;;;4.47;;
37001;SDS011;22913;51.910;8.374;2023-02-01T07:36:56;12.80;;;3.90;;
37001;SDS011;22913;51.910;8.374;2023-02-01T07:39:42;17.20;;;3.93;;
37001;SDS011;22913;51.910;8.374;2023-02-01T07:42:27;13.77;;;3.70;;
37001;SDS011;22913;51.910;8.374;2023-02-01T07:45:13;14.87;;;3.40;;
37001;SDS011;22913;51.910;8.374;2023-02-01T07:47:59;15.37;;;4.10;;
37001;SDS011;22913;51.910;8.374;2023-02-01T07:50:46;12.20;;;3.57;;
37001;SDS011;22913;51.910;8.374;2023-02-01T07:53:32;9.00;;;3.33;;
37001;SDS011;22913;51.910;8.374;2023-02-01T07:56:20;13.73;;;3.73;;
37001;SDS011;22913;51.910;8.374;2023-02-01T07:59:06;13.30;;;3.60;;
37001;SDS011;22913;51.910;8.374;2023-02-01T08:01:52;16.13;;;3.97;;
37001;SDS011;22913;51.910;8.374;2023-02-01T08:04:38;20.07;;;4.90;;
37001;SDS011;22913;51.910;8.374;2023-02-01T08:07:25;21.87;;;4.23;;
37001;SDS011;22913;51.910;8.374;2023-02-01T08:10:11;14.17;;;3.90;;
37001;SDS011;22913;51.910;8.374;2023-02-01T08:12:57;14.73;;;4.50;;
37001;SDS011;22913;51.910;8.374;2023-02-01T08:15:44;12.80;;;3.67;;
37001;SDS011;22913;51.910;8.374;2023-02-01T08:18:30;15.23;;;4.03;;
37001;SDS011;22913;51.910;8.374;2023-02-01T08:21:16;16.77;;;4.03;;
37001;SDS011;22913;51.910;8.374;2023-02-01T08:24:05;15.03;;;3.97;;
37001;SDS011;22913;51.910;8.374;2023-02-01T08:26:53;20.33;;;4.53;;
37001;SDS011;22913;51.910;8.374;2023-02-01T08:29:38;16.37;;;4.63;;
37001;SDS011;22913;51.910;8.374;2023-02-01T08:32:24;15.13;;;4.10;;
37001;SDS011;22913;51.910;8.374;2023-02-01T08:35:10;12.10;;;3.30;;
37001;SDS011;22913;51.910;8.374;2023-02-01T08:37:56;9.67;;;3.73;;
37001;SDS011;22913;51.910;8.374;2023-02-01T08:40:43;21.47;;;4.47;;
37001;SDS011;22913;51.910;8.374;2023-02-01T08:43:29;20.73;;;3.93;;
37001;SDS011;22913;51.910;8.374;2023-02-01T08:46:15;13.47;;;4.43;;
37001;SDS011;22913;51.910;8.374;2023-02-01T08:49:01;15.93;;;3.70;;
37001;SDS011;22913;51.910;8.374;2023-02-01T08:51:47;12.23;;;3.97;;
37001;SDS011;22913;51.910;8.374;2023-02-01T08:54:33;15.90;;;3.83;;
37001;SDS011;22913;51.910;8.374;2023-02-01T08:57:20;15.40;;;5.47;;
37001;SDS011;22913;51.910;8.374;2023-02-01T09:00:06;11.90;;;4.03;;
37001;SDS011;22913;51.910;8.374;2023-02-01T09:02:55;13.60;;;4.63;;
37001;SDS011;22913;51.910;8.374;2023-02-01T09:05:40;12.93;;;4.03;;
37001;SDS011;22913;51.910;8.374;2023-02-01T09:08:26;13.90;;;4.27;;
37001;SDS011;22913;51.910;8.374;2023-02-01T09:11:12;15.13;;;4.17;;
37001;SDS011;22913;51.910;8.374;2023-02-01T09:14:01;13.43;;;3.70;;
37001;SDS011;22913;51.910;8.374;2023-02-01T09:16:47;13.50;;;4.63;;
37001;SDS011;22913;51.910;8.374;2023-02-01T09:19:33;19.00;;;4.17;;
37001;SDS011;22913;51.910;8.374;2023-02-01T09:22:18;13.83;;;3.40;;
37001;SDS011;22913;51.910;8.374;2023-02-01T09:25:04;12.97;;;4.17;;
37001;SDS011;22913;51.910;8.374;2023-02-01T09:27:51;18.00;;;3.60;;
37001;SDS011;22913;51.910;8.374;2023-02-01T09:30:38;10.60;;;3.90;;
37001;SDS011;22913;51.910;8.374;2023-02-01T09:33:24;14.97;;;4.07;;
37001;SDS011;22913;51.910;8.374;2023-02-01T09:36:10;13.77;;;3.60;;
37001;SDS011;22913;51.910;8.374;2023-02-01T09:38:55;10.77;;;3.63;;
37001;SDS011;22913;51.910;8.374;2023-02-01T09:41:45;11.13;;;3.10;;
37001;SDS011;22913;51.910;8.374;2023-02-01T09:44:40;18.23;;;4.27;;
37001;SDS011;22913;51.910;8.374;2023-02-01T09:47:35;17.37;;;4.63;;
37001;SDS011;22913;51.910;8.374;2023-02-01T09:50:28;13.70;;;4.93;;
37001;SDS011;22913;51.910;8.374;2023-02-01T09:53:21;15.67;;;3.97;;
37001;SDS011;22913;51.910;8.374;2023-02-01T09:56:12;10.57;;;3.90;;
37001;SDS011;22913;51.910;8.374;2023-02-01T09:59:08;14.77;;;3.67;;
37001;SDS011;22913;51.910;8.374;2023-02-01T10:01:59;12.40;;;3.50;;
37001;SDS011;22913;51.910;8.374;2023-02-01T10:04:48;14.63;;;3.87;;
37001;SDS011;22913;51.910;8.374;2023-02-01T10:07:35;14.73;;;3.90;;
37001;SDS011;22913;51.910;8.374;2023-02-01T10:10:28;17.20;;;4.10;;
37001;SDS011;22913;51.910;8.374;2023-02-01T10:13:32;14.63;;;3.80;;
37001;SDS011;22913;51.910;8.374;2023-02-01T10:16:32;14.37;;;3.93;;
37001;SDS011;22913;51.910;8.374;2023-02-01T10:19:24;15.10;;;3.90;;
37001;SDS011;22913;51.910;8.374;2023-02-01T10:22:24;14.70;;;4.40;;
37001;SDS011;22913;51.910;8.374;2023-02-01T10:25:17;12.47;;;3.53;;
37001;SDS011;22913;51.910;8.374;2023-02-01T10:28:08;16.10;;;3.83;;
37001;SDS011;22913;51.910;8.374;2023-02-01T10:31:00;17.23;;;4.70;;
37001;SDS011;22913;51.910;8.374;2023-02-01T10:33:47;14.73;;;4.40;;
37001;SDS011;22913;51.910;8.374;2023-02-01T10:36:35;14.53;;;4.57;;
37001;SDS011;22913;51.910;8.374;2023-02-01T10:39:26;13.57;;;4.70;;
37001;SDS011;22913;51.910;8.374;2023-02-01T10:42:11;10.97;;;3.77;;
37001;SDS011;22913;51.910;8.374;2023-02-01T10:44:57;16.63;;;4.40;;
37001;SDS011;22913;51.910;8.374;2023-02-01T10:47:45;12.03;;;3.63;;
37001;SDS011;22913;51.910;8.374;2023-02-01T10:50:33;15.27;;;4.17;;
37001;SDS011;22913;51.910;8.374;2023-02-01T10:53:24;12.73;;;3.77;;
37001;SDS011;22913;51.910;8.374;2023-02-01T10:56:19;15.83;;;3.97;;
37001;SDS011;22913;51.910;8.374;2023-02-01T10:59:13;14.80;;;4.07;;
37001;SDS011;22913;51.910;8.374;2023-02-01T11:02:02;16.90;;;4.10;;
37001;SDS011;22913;51.910;8.374;2023-02-01T11:05:00;14.90;;;3.80;;
37001;SDS011;22913;51.910;8.374;2023-02-01T11:07:48;17.33;;;5.10;;
37001;SDS011;22913;51.910;8.374;2023-02-01T11:10:35;17.27;;;4.53;;
37001;SDS011;22913;51.910;8.374;2023-02-01T11:13:24;14.43;;;3.67;;
37001;SDS011;22913;51.910;8.374;2023-02-01T11:16:14;10.97;;;4.23;;
37001;SDS011;22913;51.910;8.374;2023-02-01T11:19:00;13.07;;;4.20;;
37001;SDS011;22913;51.910;8.374;2023-02-01T11:21:48;14.20;;;3.90;;
37001;SDS011;22913;51.910;8.374;2023-02-01T11:24:35;14.83;;;3.70;;
37001;SDS011;22913;51.910;8.374;2023-02-01T11:27:22;17.10;;;4.20;;
37001;SDS011;22913;51.910;8.374;2023-02-01T11:30:13;15.87;;;4.43;;
37001;SDS011;22913;51.910;8.374;2023-02-01T11:33:01;13.93;;;3.70;;
37001;SDS011;22913;51.910;8.374;2023-02-01T11:35:50;12.60;;;4.50;;
37001;SDS011;22913;51.910;8.374;2023-02-01T11:38:37;13.80;;;4.23;;
37001;SDS011;22913;51.910;8.374;2023-02-01T11:41:23;15.07;;;4.43;;
37001;SDS011;22913;51.910;8.374;2023-02-01T11:44:19;19.03;;;4.20;;
37001;SDS011;22913;51.910;8.374;2023-02-01T11:47:21;14.53;;;4.13;;
37001;SDS011;22913;51.910;8.374;2023-02-01T11:50:12;13.13;;;3.90;;
37001;SDS011;22913;51.910;8.374;2023-02-01T11:53:03;16.00;;;4.57;;
37001;SDS011;22913;51.910;8.374;2023-02-01T11:56:05;16.03;;;4.80;;
37001;SDS011;22913;51.910;8.374;2023-02-01T11:59:01;15.97;;;4.53;;
37001;SDS011;22913;51.910;8.374;2023-02-01T12:02:11;12.80;;;3.80;;
37001;SDS011;22913;51.910;8.374;2023-02-01T12:05:20;12.93;;;4.20;;
37001;SDS011;22913;51.910;8.374;2023-02-01T12:08:32;12.50;;;4.70;;
37001;SDS011;22913;51.910;8.374;2023-02-01T12:11:40;15.10;;;4.40;;
37001;SDS011;22913;51.910;8.374;2023-02-01T12:14:51;14.97;;;4.63;;
37001;SDS011;22913;51.910;8.374;2023-02-01T12:18:03;15.33;;;4.40;;
37001;SDS011;22913;51.910;8.374;2023-02-01T12:21:03;17.70;;;5.37;;
37001;SDS011;22913;51.910;8.374;2023-02-01T12:24:00;15.80;;;4.50;;
37001;SDS011;22913;51.910;8.374;2023-02-01T12:27:14;18.33;;;5.50;;
37001;SDS011;22913;51.910;8.374;2023-02-01T12:30:17;16.60;;;5.30;;
37001;SDS011;22913;51.910;8.374;2023-02-01T12:33:23;11.63;;;4.63;;
37001;SDS011;22913;51.910;8.374;2023-02-01T12:36:18;15.93;;;4.90;;
37001;SDS011;22913;51.910;8.374;2023-02-01T12:39:10;23.87;;;5.83;;
37001;SDS011;22913;51.910;8.374;2023-02-01T12:42:07;15.33;;;4.83;;
37001;SDS011;22913;51.910;8.374;2023-02-01T12:44:56;11.80;;;5.40;;
37001;SDS011;22913;51.910;8.374;2023-02-01T12:47:52;19.83;;;5.20;;
37001;SDS011;22913;51.910;8.374;2023-02-01T12:50:43;16.00;;;5.13;;
37001;SDS011;22913;51.910;8.374;2023-02-01T12:53:35;15.80;;;5.20;;
37001;SDS011;22913;51.910;8.374;2023-02-01T12:56:30;14.80;;;5.57;;
37001;SDS011;22913;51.910;8.374;2023-02-01T12:59:20;17.77;;;5.13;;
37001;SDS011;22913;51.910;8.374;2023-02-01T13:02:11;13.97;;;5.00;;
37001;SDS011;22913;51.910;8.374;2023-02-01T13:05:03;17.60;;;5.10;;
37001;SDS011;22913;51.910;8.374;2023-02-01T13:08:00;17.70;;;4.53;;
37001;SDS011;22913;51.910;8.374;2023-02-01T13:10:51;15.60;;;4.33;;
37001;SDS011;22913;51.910;8.374;2023-02-01T13:13:44;14.53;;;4.40;;
37001;SDS011;22913;51.910;8.374;2023-02-01T13:16:35;15.93;;;4.37;;
37001;SDS011;22913;51.910;8.374;2023-02-01T13:19:26;7.87;;;4.00;;
37001;SDS011;22913;51.910;8.374;2023-02-01T13:22:15;12.67;;;5.13;;
37001;SDS011;22913;51.910;8.374;2023-02-01T13:25:17;16.43;;;5.07;;
37001;SDS011;22913;51.910;8.374;2023-02-01T13:28:12;12.43;;;4.37;;
37001;SDS011;22913;51.910;8.374;2023-02-01T13:31:27;13.53;;;3.97;;
37001;SDS011;22913;51.910;8.374;2023-02-01T13:34:33;11.30;;;5.10;;
37001;SDS011;22913;51.910;8.374;2023-02-01T13:37:38;14.83;;;4.20;;
37001;SDS011;22913;51.910;8.374;2023-02-01T13:40:40;8.30;;;3.77;;
37001;SDS011;22913;51.910;8.374;2023-02-01T13:43:29;13.40;;;3.73;;
37001;SDS011;22913;51.910;8.374;2023-02-01T13:46:15;15.40;;;4.10;;
37001;SDS011;22913;51.910;8.374;2023-02-01T13:49:01;14.67;;;3.83;;
37001;SDS011;22913;51.910;8.374;2023-02-01T13:51:48;15.00;;;4.03;;
37001;SDS011;22913;51.910;8.374;2023-02-01T13:54:37;12.03;;;3.97;;
37001;SDS011;22913;51.910;8.374;2023-02-01T13:57:32;13.10;;;3.97;;
37001;SDS011;22913;51.910;8.374;2023-02-01T14:00:26;14.33;;;4.13;;
37001;SDS011;22913;51.910;8.374;2023-02-01T14:03:15;14.73;;;3.70;;
37001;SDS011;22913;51.910;8.374;2023-02-01T14:06:03;11.77;;;3.40;;
37001;SDS011;22913;51.910;8.374;2023-02-01T14:09:11;12.63;;;4.20;;
37001;SDS011;22913;51.910;8.374;2023-02-01T14:15:27;12.93;;;3.63;;
37001;SDS011;22913;51.910;8.374;2023-02-01T14:21:32;13.47;;;4.00;;
37001;SDS011;22913;51.910;8.374;2023-02-01T14:24:22;12.90;;;3.63;;
37001;SDS011;22913;51.910;8.374;2023-02-01T14:27:14;17.60;;;4.20;;
37001;SDS011;22913;51.910;8.374;2023-02-01T14:30:04;12.37;;;3.90;;
37001;SDS011;22913;51.910;8.374;2023-02-01T14:32:53;14.40;;;3.90;;
37001;SDS011;22913;51.910;8.374;2023-02-01T14:35:39;16.60;;;4.10;;
37001;SDS011;22913;51.910;8.374;2023-02-01T14:38:24;12.43;;;3.70;;
37001;SDS011;22913;51.910;8.374;2023-02-01T14:41:16;10.57;;;3.90;;
37001;SDS011;22913;51.910;8.374;2023-02-01T14:44:24;13.00;;;3.83;;
37001;SDS011;22913;51.910;8.374;2023-02-01T14:50:26;12.17;;;3.83;;
37001;SDS011;22913;51.910;8.374;2023-02-01T14:53:18;9.03;;;2.60;;
37001;SDS011;22913;51.910;8.374;2023-02-01T14:56:08;6.43;;;2.30;;
37001;SDS011;22913;51.910;8.374;2023-02-01T14:59:00;5.03;;;1.70;;
37001;SDS011;22913;51.910;8.374;2023-02-01T15:01:55;6.73;;;2.10;;
37001;SDS011;22913;51.910;8.374;2023-02-01T15:04:43;5.73;;;1.60;;
37001;SDS011;22913;51.910;8.374;2023-02-01T15:07:31;5.93;;;2.10;;
37001;SDS011;22913;51.910;8.374;2023-02-01T15:10:17;3.83;;;1.40;;
37001;SDS011;22913;51.910;8.374;2023-02-01T15:13:07;3.37;;;1.40;;
37001;SDS011;22913;51.910;8.374;2023-02-01T15:16:04;5.70;;;1.77;;
37001;SDS011;22913;51.910;8.374;2023-02-01T15:19:07;6.47;;;1.80;;
37001;SDS011;22913;51.910;8.374;2023-02-01T15:21:54;5.70;;;1.20;;
37001;SDS011;22913;51.910;8.374;2023-02-01T15:24:42;5.90;;;2.20;;
37001;SDS011;22913;51.910;8.374;2023-02-01T15:27:29;4.27;;;1.70;;
37001;SDS011;22913;51.910;8.374;2023-02-01T15:30:16;3.70;;;2.00;;
37001;SDS011;22913;51.910;8.374;2023-02-01T15:33:04;9.43;;;2.50;;
37001;SDS011;22913;51.910;8.374;2023-02-01T15:35:52;7.43;;;2.90;;
37001;SDS011;22913;51.910;8.374;2023-02-01T15:38:39;5.30;;;2.80;;
37001;SDS011;22913;51.910;8.374;2023-02-01T15:41:29;12.60;;;3.30;;
37001;SDS011;22913;51.910;8.374;2023-02-01T15:44:19;11.57;;;3.57;;
37001;SDS011;22913;51.910;8.374;2023-02-01T15:47:13;19.23;;;3.70;;
37001;SDS011;22913;51.910;8.374;2023-02-01T15:50:01;13.47;;;3.40;;
37001;SDS011;22913;51.910;8.374;2023-02-01T15:52:47;12.47;;;3.40;;
37001;SDS011;22913;51.910;8.374;2023-02-01T15:55:35;10.43;;;3.07;;
37001;SDS011;22913;51.910;8.374;2023-02-01T15:58:24;11.70;;;3.20;;
37001;SDS011;22913;51.910;8.374;2023-02-01T16:01:12;9.70;;;3.00;;
37001;SDS011;22913;51.910;8.374;2023-02-01T16:04:03;15.03;;;3.83;;
37001;SDS011;22913;51.910;8.374;2023-02-01T16:06:58;13.07;;;3.60;;
37001;SDS011;22913;51.910;8.374;2023-02-01T16:09:48;11.67;;;3.40;;
37001;SDS011;22913;51.910;8.374;2023-02-01T16:12:45;16.77;;;3.43;;
37001;SDS011;22913;51.910;8.374;2023-02-01T16:15:33;15.87;;;3.40;;
37001;SDS011;22913;51.910;8.374;2023-02-01T16:18:19;11.57;;;3.40;;
37001;SDS011;22913;51.910;8.374;2023-02-01T16:21:05;11.50;;;3.57;;
37001;SDS011;22913;51.910;8.374;2023-02-01T16:23:51;11.47;;;3.70;;
37001;SDS011;22913;51.910;8.374;2023-02-01T16:26:38;13.17;;;3.60;;
37001;SDS011;22913;51.910;8.374;2023-02-01T16:29:24;9.97;;;2.70;;
37001;SDS011;22913;51.910;8.374;2023-02-01T16:32:14;6.87;;;2.50;;
37001;SDS011;22913;51.910;8.374;2023-02-01T16:35:02;10.40;;;2.63;;
37001;SDS011;22913;51.910;8.374;2023-02-01T16:37:48;7.50;;;2.90;;
37001;SDS011;22913;51.910;8.374;2023-02-01T16:40:34;9.10;;;3.00;;
37001;SDS011;22913;51.910;8.374;2023-02-01T16:43:20;7.87;;;2.63;;
37001;SDS011;22913;51.910;8.374;2023-02-01T16:46:11;8.67;;;3.00;;
37001;SDS011;22913;51.910;8.374;2023-02-01T16:49:01;12.77;;;3.00;;
37001;SDS011;22913;51.910;8.374;2023-02-01T16:51:48;9.30;;;2.90;;
37001;SDS011;22913;51.910;8.374;2023-02-01T16:54:36;8.93;;;2.90;;
37001;SDS011;22913;51.910;8.374;2023-02-01T16:57:22;11.97;;;3.17;;
37001;SDS011;22913;51.910;8.374;2023-02-01T17:00:08;9.20;;;3.30;;
37001;SDS011;22913;51.910;8.374;2023-02-01T17:02:55;13.63;;;2.97;;
37001;SDS011;22913;51.910;8.374;2023-02-01T17:05:42;10.10;;;2.80;;
37001;SDS011;22913;51.910;8.374;2023-02-01T17:08:31;10.83;;;3.27;;